Hlavní strana
METAR-TAF:

METAR-TAF

Letiště :

Fairfield County Airport

Lancaster, Ohio, Spojené státy americké

zeměpisná šířka: 39-45-26N, zeměpisná délka: 082-39-48W, výška: 264 m

Aktuální stav počasí

Zpráva byla vytvořena před 19 minutami, v 04:53 UTC
Západní vítr 4 kt
Teplota 21°C
Vlhkost vzduchu 94%
Tlak 1012 hPa
Viditelnost: 16.1 km
Polojasno ve výšce 2100 ft
Zataženo ve výšce 8000 ft

METAR: KLHQ 220453Z AUTO 28004KT 10SM SCT021 OVC080 21/20 A2989 RMK AO2 SLP115 T02110200 402720211

Čas: 01:12 (05:12 UTC)


TAF: chybějící

Stav a předpovědi počasí z více než 4 000 letišť (zprávy METAR a TAF).

Červené a žluté tečky na mapě představují dostupné meteorologické stanice.

Když kurzor umístíte na tečku, zobrazí se název stanice.

Pak kliknutím zobrazíte stav a předpověď počasí.

Chcete-li změnit mapu, kliknutím na zelené tlačítko se znaménkem +mapu přiblížíte, kliknutím na zelené tlačítko se znaménkem – mapu oddálíte a kliknutím na zelené šipky přejdete na sousední mapy.


METAR-TAF: